Airfield :
LOGIN :

Register | Disclaimer

   EN    FR    IT 

 










Legend :    VFR   Marginal VFR   IFR   Intensive IFR   Very Intensive IFR
Visi :
Ceiling :
>= 8 km
>= 3000ft
5 to 8 km
1000 to 3000 ft
1500m to 5 km
500 to 1000 ft
800 to 1500m
200 to 500 ft
< 800m
< 200 ft
Symbols :   Thunderstorms  Fog  Heavy snow  Heavy precipitations  Wind > 20 kt
SIGMETs :     Misc.  Thunderstorms  Icing  Turbulence  Mountain Waves  Volcanic Ashes







- Airport Elevation : 327 ft
- IATA code : BHX
- Download approach charts


EGBB - Birmingham

CURRENT METAR :
  • 251350Z 32016KT 9999 VCSH FEW030CB SCT047 05/01 Q1015

EXPIRED METARs :
  • 251320Z 33016KT 9999 VCSH SCT041CB 07/M01 Q1014
  • 251250Z 01007KT 9999 VCSH FEW012 SCT042CB BKN048 07/00 Q1014 RESHGR RESN
  • 251220Z 35013G23KT 9999 4000E SHGRSN BKN043CB 06/M02 Q1014
  • 251150Z 35015KT 9999 VCSH SCT045 09/M03 Q1014

TAF AMD TAF EGBB
Valid from the 25 at 12:00 until the 26 at 12:00 UTC


251227Z 2512/2612 33012KT 9999 SCT040
PROB30
TEMPO 2512/2521 35015G25KT 6000 SHRAGS
ATIS : +44 121 780 0910
No reported NOTAMs for that airfield.



MET'MAP, your aeronautical weather chart ! - Copyright ORBIFLY December 2007 - Disclaimer

ORBIFLY MET'MAP TEAM :

Programming & Development : Alexandra Zaïnal
Concept & Development : Baudouin d'Aumeries
Co-Development & Prog : Marc-Olivier Méhu
Technical & hardware support : Manuel Goepfert

Contact : metmap@orbifly.com




SOURCES & CREDITS :

   NOAA